Terminal Aerodrome Forecast
Issued by NWS Charleston, WV

Current Version | Previous Version | Text Only | Print | Product List | Glossary Off
Versions: 1 2 3 4 5 6 7 8 9 10 11 12 13 14 15 16 17 18 19 20 21 22 23 24 25 26 27 28 29

000
FTUS41 KRLX 251100
TAFCRW
TAF
KCRW 251129Z 2512/2612 14005KT P6SM BKN120 WS020/19035KT
     FM251300 18009G15KT P6SM SCT060 BKN120
     FM252000 22010G18KT P6SM BKN050
     FM252300 20005KT P6SM BKN060=

USA.gov is the U.S. government's official web portal to all federal, state and local government web resources and services.